createdAt,value
2019-01-10T00:01:01.816Z,102447.64
2019-01-10T00:03:31.436Z,102452.31
2019-01-10T00:06:00.461Z,102450.77
2019-01-10T00:08:29.843Z,102456.28
2019-01-10T00:10:58.846Z,102454.11
2019-01-10T00:13:28.236Z,102443.54
2019-01-10T00:15:57.311Z,102450.70
2019-01-10T00:18:26.644Z,102455.84
2019-01-10T00:20:55.800Z,102461.20
2019-01-10T00:23:24.860Z,102468.73
2019-01-10T00:25:53.916Z,102465.94
2019-01-10T00:28:23.271Z,102467.55
2019-01-10T00:30:52.341Z,102466.08
2019-01-10T00:33:21.352Z,102464.05
2019-01-10T00:35:50.426Z,102471.20
2019-01-10T00:38:19.444Z,102474.33
2019-01-10T00:40:48.481Z,102475.56
2019-01-10T00:43:17.498Z,102476.47
2019-01-10T00:45:46.988Z,102477.48
2019-01-10T00:48:16.022Z,102481.22
2019-01-10T00:50:45.460Z,102478.72
2019-01-10T00:53:14.508Z,102474.83
2019-01-10T00:55:43.511Z,102474.12
2019-01-10T00:58:12.551Z,102477.45
2019-01-10T01:00:41.589Z,102474.16
2019-01-10T01:03:11.393Z,102476.98
2019-01-10T01:05:40.670Z,102479.17
2019-01-10T01:08:09.676Z,102481.31
2019-01-10T01:10:38.720Z,102476.98
2019-01-10T01:13:08.004Z,102473.84
2019-01-10T01:15:37.004Z,102469.17
2019-01-10T01:18:06.015Z,102471.23
2019-01-10T01:20:35.144Z,102464.94
2019-01-10T01:23:04.273Z,102448.26
2019-01-10T01:25:33.656Z,102466.42
2019-01-10T01:28:02.666Z,102469.23
2019-01-10T01:30:32.018Z,102482.06
2019-01-10T01:33:01.386Z,102476.78
2019-01-10T01:35:30.453Z,102474.69
2019-01-10T01:37:59.476Z,102482.67
2019-01-10T01:40:28.630Z,102486.56
2019-01-10T01:42:57.655Z,102495.45
2019-01-10T01:45:26.650Z,102497.25
2019-01-10T01:47:56.115Z,102505.10
2019-01-10T01:50:25.424Z,102503.38
2019-01-10T01:52:54.747Z,102512.23
2019-01-10T01:55:24.154Z,102513.56
2019-01-10T01:57:53.219Z,102521.48
2019-01-10T02:00:24.274Z,102513.93
2019-01-10T02:02:53.661Z,102517.45
2019-01-10T02:05:22.656Z,102523.64
2019-01-10T02:07:51.874Z,102524.89
2019-01-10T02:10:23.400Z,102523.64
2019-01-10T02:12:52.420Z,102523.98
2019-01-10T02:15:21.552Z,102524.83
2019-01-10T02:17:50.654Z,102525.14
2019-01-10T02:20:19.832Z,102532.27
2019-01-10T02:22:48.852Z,102532.41
2019-01-10T02:25:18.565Z,102537.78
2019-01-10T02:27:47.941Z,102531.63
2019-01-10T02:30:19.803Z,102531.56
2019-01-10T02:32:49.564Z,102535.14
2019-01-10T02:35:18.834Z,102536.30
2019-01-10T02:37:48.386Z,102534.67
2019-01-10T02:40:17.760Z,102533.34
2019-01-10T02:42:46.847Z,102531.38
2019-01-10T02:45:17.125Z,102530.47
2019-01-10T02:47:46.774Z,102528.20
2019-01-10T02:50:25.027Z,102523.33
2019-01-10T02:52:54.139Z,102529.15
2019-01-10T02:55:23.168Z,102531.25
2019-01-10T02:57:52.270Z,102530.23
2019-01-10T03:00:23.051Z,102542.89
2019-01-10T03:02:52.627Z,102540.12
2019-01-10T03:05:22.339Z,102545.58
2019-01-10T03:07:51.688Z,102540.71
2019-01-10T03:10:24.952Z,102543.72
2019-01-10T03:12:53.974Z,102542.74
2019-01-10T03:15:23.483Z,102532.56
2019-01-10T03:17:52.798Z,102535.54
2019-01-10T03:20:22.923Z,102532.42
2019-01-10T03:22:51.939Z,102538.42
2019-01-10T03:25:20.971Z,102537.64
2019-01-10T03:27:50.315Z,102535.64
2019-01-10T03:30:20.434Z,102543.77
2019-01-10T03:32:50.053Z,102540.82
2019-01-10T03:35:19.281Z,102537.77
2019-01-10T03:37:48.252Z,102548.39
2019-01-10T03:40:21.898Z,102535.61
2019-01-10T03:42:50.926Z,102534.22
2019-01-10T03:45:21.847Z,102531.34
2019-01-10T03:47:51.412Z,102532.59
2019-01-10T03:50:20.612Z,102525.45
2019-01-10T03:52:49.652Z,102525.73
2019-01-10T03:55:19.078Z,102521.50
2019-01-10T03:57:48.181Z,102529.89
2019-01-10T04:00:19.936Z,102522.27
2019-01-10T04:02:49.309Z,102524.78
2019-01-10T04:05:18.490Z,102523.46
2019-01-10T04:07:47.583Z,102526.81
2019-01-10T04:10:16.951Z,102528.91
2019-01-10T04:12:46.392Z,102522.24
2019-01-10T04:15:16.737Z,102520.24
2019-01-10T04:17:45.754Z,102517.60
2019-01-10T04:20:16.680Z,102504.39
2019-01-10T04:22:46.082Z,102502.53
2019-01-10T04:25:15.967Z,102509.30
2019-01-10T04:27:45.273Z,102507.03
2019-01-10T04:30:19.618Z,102511.00
2019-01-10T04:32:48.632Z,102517.06
2019-01-10T04:35:17.660Z,102523.29
2019-01-10T04:37:46.638Z,102530.27
2019-01-10T04:40:17.913Z,102536.33
2019-01-10T04:42:46.945Z,102545.20
2019-01-10T04:45:16.399Z,102534.86
2019-01-10T04:47:45.416Z,102524.64
2019-01-10T04:50:15.624Z,102525.41
2019-01-10T04:52:44.715Z,102513.19
2019-01-10T04:55:14.570Z,102531.94
2019-01-10T04:57:43.691Z,102533.12
2019-01-10T05:00:16.451Z,102538.74
2019-01-10T05:02:48.593Z,102542.84
2019-01-10T05:05:17.939Z,102542.37
2019-01-10T05:07:47.089Z,102537.16
2019-01-10T05:10:16.112Z,102533.67
2019-01-10T05:12:45.140Z,102535.30
2019-01-10T05:15:14.914Z,102541.39
2019-01-10T05:17:43.923Z,102547.59
2019-01-10T05:20:15.635Z,102544.03
2019-01-10T05:22:44.676Z,102555.37
2019-01-10T05:25:14.038Z,102552.19
2019-01-10T05:27:43.417Z,102549.00
2019-01-10T05:30:15.952Z,102558.11
2019-01-10T05:32:45.114Z,102562.62
2019-01-10T05:35:14.821Z,102561.30
2019-01-10T05:37:43.896Z,102559.43
2019-01-10T05:40:12.966Z,102552.34
2019-01-10T05:42:42.009Z,102559.43
2019-01-10T05:45:12.808Z,102566.88
2019-01-10T05:47:43.248Z,102560.75
2019-01-10T05:50:14.065Z,102556.79
2019-01-10T05:52:43.084Z,102561.13
2019-01-10T05:55:15.130Z,102546.50
2019-01-10T05:57:44.520Z,102558.34
2019-01-10T06:00:17.102Z,102559.26
2019-01-10T06:02:46.168Z,102553.20
2019-01-10T06:05:16.207Z,102557.70
2019-01-10T06:07:45.293Z,102559.88
2019-01-10T06:10:18.083Z,102565.63
2019-01-10T06:12:47.299Z,102561.67
2019-01-10T06:15:17.657Z,102559.03
2019-01-10T06:17:46.731Z,102570.20
2019-01-10T06:20:17.361Z,102581.73
2019-01-10T06:22:46.347Z,102570.34
2019-01-10T06:25:15.581Z,102577.83
2019-01-10T06:27:44.952Z,102567.41
2019-01-10T06:30:17.063Z,102562.73
2019-01-10T06:32:46.537Z,102567.30
2019-01-10T06:35:15.920Z,102576.25
2019-01-10T06:37:44.920Z,102566.66
2019-01-10T06:40:15.835Z,102571.17
2019-01-10T06:42:44.857Z,102575.67
2019-01-10T06:45:14.949Z,102566.42
2019-01-10T06:47:43.976Z,102570.77
2019-01-10T06:50:14.363Z,102564.02
2019-01-10T06:52:43.383Z,102556.09
2019-01-10T06:55:12.782Z,102557.66
2019-01-10T06:57:41.849Z,102562.73
2019-01-10T07:00:14.239Z,102564.52
2019-01-10T07:02:43.262Z,102567.30
2019-01-10T07:05:12.290Z,102570.08
2019-01-10T07:07:41.329Z,102574.59
2019-01-10T07:10:17.406Z,102583.97
2019-01-10T07:12:46.498Z,102586.61
2019-01-10T07:15:15.649Z,102602.86
2019-01-10T07:17:44.666Z,102602.09
2019-01-10T07:20:13.899Z,102605.81
2019-01-10T07:22:48.067Z,102605.94
2019-01-10T07:25:17.404Z,102614.78
2019-01-10T07:27:46.460Z,102611.77
2019-01-10T07:30:21.202Z,102621.92
2019-01-10T07:32:50.220Z,102621.00
2019-01-10T07:35:19.241Z,102614.71
2019-01-10T07:37:53.591Z,102609.42
2019-01-10T07:40:23.040Z,102619.80
2019-01-10T07:42:52.045Z,102612.78
2019-01-10T07:45:25.809Z,102618.71
2019-01-10T07:47:55.346Z,102619.73
2019-01-10T07:50:30.557Z,102624.77
2019-01-10T07:52:59.912Z,102622.00
2019-01-10T07:55:28.918Z,102627.66
2019-01-10T07:57:58.035Z,102635.86
2019-01-10T08:00:27.102Z,102625.59
2019-01-10T08:02:56.149Z,102632.91
2019-01-10T08:05:25.198Z,102646.13
2019-01-10T08:07:54.257Z,102649.89
2019-01-10T08:10:23.317Z,102640.57
2019-01-10T08:12:52.737Z,102640.81
2019-01-10T08:15:22.688Z,102639.86
2019-01-10T08:17:52.075Z,102646.56
2019-01-10T08:20:21.106Z,102648.06
2019-01-10T08:22:50.793Z,102647.92
2019-01-10T08:25:19.779Z,102646.23
2019-01-10T08:27:49.426Z,102645.61
2019-01-10T08:30:20.634Z,102644.52
2019-01-10T08:32:49.739Z,102645.16
2019-01-10T08:35:24.027Z,102651.23
2019-01-10T08:37:53.192Z,102661.91
2019-01-10T08:40:23.454Z,102664.78
2019-01-10T08:42:53.403Z,102665.59
2019-01-10T08:45:22.466Z,102666.36
2019-01-10T08:47:51.705Z,102670.70
2019-01-10T08:50:26.071Z,102672.92
2019-01-10T08:52:55.169Z,102678.05
2019-01-10T08:55:24.469Z,102679.36
2019-01-10T08:57:53.575Z,102679.28
2019-01-10T09:00:23.890Z,102668.06
2019-01-10T09:02:53.372Z,102663.41
2019-01-10T09:05:22.514Z,102673.84
2019-01-10T09:07:51.587Z,102669.19
2019-01-10T09:10:25.673Z,102666.63
2019-01-10T09:12:54.803Z,102678.08
2019-01-10T09:15:33.963Z,102668.90
2019-01-10T09:17:55.724Z,102668.14
2019-01-10T09:20:24.785Z,102675.91
2019-01-10T09:22:53.803Z,102674.66
2019-01-10T09:25:23.130Z,102676.86
2019-01-10T09:27:52.173Z,102679.88
2019-01-10T09:30:22.160Z,102678.26
2019-01-10T09:32:51.202Z,102686.97
2019-01-10T09:35:20.373Z,102681.27
2019-01-10T09:37:49.441Z,102683.22
2019-01-10T09:40:19.649Z,102690.53
2019-01-10T09:42:48.687Z,102693.11
2019-01-10T09:45:20.013Z,102691.96
2019-01-10T09:47:49.031Z,102695.60
2019-01-10T09:50:18.891Z,102698.17
2019-01-10T09:52:48.227Z,102699.17
2019-01-10T09:55:17.243Z,102693.44
2019-01-10T09:57:46.495Z,102697.34
2019-01-10T10:00:26.473Z,102698.03
2019-01-10T10:02:55.468Z,102700.98
2019-01-10T10:05:24.519Z,102704.25
2019-01-10T10:07:53.850Z,102706.58
2019-01-10T10:10:23.275Z,102702.86
2019-01-10T10:12:52.338Z,102701.61
2019-01-10T10:15:21.740Z,102700.28
2019-01-10T10:17:50.779Z,102705.17
2019-01-10T10:20:24.553Z,102695.56
2019-01-10T10:22:53.920Z,102700.92
2019-01-10T10:25:23.265Z,102701.73
2019-01-10T10:27:52.298Z,102700.47
2019-01-10T10:30:22.035Z,102702.93
2019-01-10T10:32:51.040Z,102705.27
2019-01-10T10:35:20.477Z,102702.75
2019-01-10T10:37:49.633Z,102701.09
2019-01-10T10:40:20.145Z,102689.72
2019-01-10T10:42:49.968Z,102697.22
2019-01-10T10:45:19.859Z,102693.00
2019-01-10T10:47:48.904Z,102689.07
2019-01-10T10:50:20.351Z,102689.08
2019-01-10T10:52:49.366Z,102685.58
2019-01-10T10:55:18.667Z,102679.16
2019-01-10T10:57:47.789Z,102683.17
2019-01-10T11:00:22.796Z,102680.92
2019-01-10T11:02:51.887Z,102684.94
2019-01-10T11:05:20.968Z,102684.41
2019-01-10T11:07:50.273Z,102681.79
2019-01-10T11:10:19.775Z,102675.18
2019-01-10T11:12:48.938Z,102675.80
2019-01-10T11:15:18.072Z,102677.41
2019-01-10T11:17:47.720Z,102674.50
2019-01-10T11:20:18.967Z,102671.66
2019-01-10T11:22:48.579Z,102674.56
2019-01-10T11:25:23.250Z,102667.37
2019-01-10T11:27:52.349Z,102672.38
2019-01-10T11:30:21.556Z,102665.47
2019-01-10T11:32:50.594Z,102667.37
2019-01-10T11:35:19.875Z,102659.03
2019-01-10T11:37:49.168Z,102652.39
2019-01-10T11:40:19.748Z,102653.36
2019-01-10T11:42:49.149Z,102653.54
2019-01-10T11:45:20.251Z,102655.06
2019-01-10T11:47:49.275Z,102653.15
2019-01-10T11:50:18.684Z,102653.73
2019-01-10T11:52:47.762Z,102652.30
2019-01-10T11:55:16.815Z,102650.13
2019-01-10T11:57:46.044Z,102648.14
2019-01-10T12:00:20.950Z,102647.09
2019-01-10T12:02:50.005Z,102643.77
2019-01-10T12:05:19.049Z,102647.97
2019-01-10T12:07:49.968Z,102639.33
2019-01-10T12:10:19.115Z,102643.85
2019-01-10T12:12:48.127Z,102640.93
2019-01-10T12:15:17.261Z,102643.09
2019-01-10T12:17:47.054Z,102645.75
2019-01-10T12:20:16.406Z,102645.66
2019-01-10T12:22:45.476Z,102642.53
2019-01-10T12:25:15.313Z,102646.15
2019-01-10T12:27:45.071Z,102642.34
2019-01-10T12:30:19.601Z,102637.78
2019-01-10T12:32:49.238Z,102636.45
2019-01-10T12:35:18.526Z,102636.09
2019-01-10T12:37:47.662Z,102627.73
2019-01-10T12:40:17.015Z,102629.05
2019-01-10T12:42:46.093Z,102630.96
2019-01-10T12:45:16.442Z,102627.81
2019-01-10T12:47:45.808Z,102626.22
2019-01-10T12:50:25.931Z,102622.50
2019-01-10T12:52:55.498Z,102619.84
2019-01-10T12:55:24.803Z,102618.24
2019-01-10T12:57:53.845Z,102624.13
2019-01-10T13:00:23.674Z,102620.91
2019-01-10T13:02:53.225Z,102614.44
2019-01-10T13:05:22.526Z,102614.26
2019-01-10T13:07:51.549Z,102611.02
2019-01-10T13:10:20.980Z,102612.75
2019-01-10T13:12:50.387Z,102614.83
2019-01-10T13:15:21.570Z,102622.05
2019-01-10T13:17:50.601Z,102625.46
2019-01-10T13:20:19.828Z,102626.22
2019-01-10T13:22:49.058Z,102629.63
2019-01-10T13:25:18.763Z,102627.73
2019-01-10T13:27:48.305Z,102624.98
2019-01-10T13:30:25.222Z,102635.61
2019-01-10T13:32:55.039Z,102627.91
2019-01-10T13:35:24.417Z,102632.69
2019-01-10T13:37:53.429Z,102623.47
2019-01-10T13:40:22.452Z,102625.25
2019-01-10T13:42:51.768Z,102626.39
2019-01-10T13:45:21.084Z,102626.39
2019-01-10T13:47:50.684Z,102625.46
2019-01-10T13:50:38.959Z,102625.83
2019-01-10T13:53:08.700Z,102624.49
2019-01-10T13:55:39.309Z,102633.22
2019-01-10T13:58:08.304Z,102637.60
2019-01-10T14:00:37.393Z,102639.77
2019-01-10T14:03:11.607Z,102630.11
2019-01-10T14:05:37.447Z,102622.05
2019-01-10T14:08:07.049Z,102624.89
2019-01-10T14:10:36.100Z,102633.34
2019-01-10T14:13:05.371Z,102629.23
2019-01-10T14:15:38.168Z,102624.80
2019-01-10T14:18:06.783Z,102624.70
2019-01-10T14:20:37.047Z,102625.46
2019-01-10T14:23:06.043Z,102625.73
2019-01-10T14:25:35.199Z,102616.91
2019-01-10T14:28:04.504Z,102618.81
2019-01-10T14:30:35.997Z,102618.42
2019-01-10T14:33:05.150Z,102621.66
2019-01-10T14:35:34.467Z,102618.81
2019-01-10T14:38:04.057Z,102622.23
2019-01-10T14:40:33.134Z,102618.24
2019-01-10T14:43:02.191Z,102620.15
2019-01-10T14:45:31.829Z,102626.13
2019-01-10T14:48:02.099Z,102628.48
2019-01-10T14:50:31.560Z,102632.68
2019-01-10T14:53:00.599Z,102630.20
2019-01-10T14:55:29.620Z,102629.89
2019-01-10T14:57:58.907Z,102627.90
2019-01-10T15:00:28.339Z,102625.54
2019-01-10T15:02:57.380Z,102632.67
2019-01-10T15:05:26.409Z,102639.02
2019-01-10T15:07:55.437Z,102633.42
2019-01-10T15:10:24.474Z,102633.20
2019-01-10T15:12:53.492Z,102638.16
2019-01-10T15:15:23.296Z,102630.02
2019-01-10T15:17:52.600Z,102628.28
2019-01-10T15:20:24.427Z,102642.61
2019-01-10T15:22:54.012Z,102633.58
2019-01-10T15:25:23.063Z,102633.58
2019-01-10T15:27:52.074Z,102639.95
2019-01-10T15:30:22.966Z,102639.06
2019-01-10T15:32:52.281Z,102635.48
2019-01-10T15:35:21.463Z,102637.08
2019-01-10T15:37:50.521Z,102644.03
2019-01-10T15:40:28.013Z,102637.06
2019-01-10T15:42:57.383Z,102640.37
2019-01-10T15:45:26.716Z,102646.83
2019-01-10T15:47:55.783Z,102643.59
2019-01-10T15:50:24.847Z,102645.66
2019-01-10T15:52:54.233Z,102643.17
2019-01-10T15:55:23.779Z,102635.33
2019-01-10T15:57:52.802Z,102629.52
2019-01-10T16:00:23.358Z,102629.34
2019-01-10T16:02:52.857Z,102628.20
2019-01-10T16:05:21.907Z,102632.38
2019-01-10T16:07:51.074Z,102627.64
2019-01-10T16:10:20.863Z,102630.10
2019-01-10T16:12:50.230Z,102628.75
2019-01-10T16:15:24.110Z,102631.41
2019-01-10T16:17:53.479Z,102630.95
2019-01-10T16:20:22.471Z,102627.78
2019-01-10T16:22:51.508Z,102623.45
2019-01-10T16:25:20.713Z,102624.50
2019-01-10T16:27:49.779Z,102629.87
2019-01-10T16:30:21.594Z,102625.68
2019-01-10T16:32:51.273Z,102623.98
2019-01-10T16:35:20.344Z,102622.27
2019-01-10T16:37:49.697Z,102626.05
2019-01-10T16:40:19.077Z,102627.30
2019-01-10T16:42:48.430Z,102627.55
2019-01-10T16:45:31.537Z,102627.78
2019-01-10T16:48:00.597Z,102624.96
2019-01-10T16:50:29.618Z,102623.05
2019-01-10T16:52:58.899Z,102618.26
2019-01-10T16:55:28.219Z,102625.48
2019-01-10T16:57:57.749Z,102624.86
2019-01-10T17:00:36.411Z,102618.26
2019-01-10T17:03:06.225Z,102607.08
2019-01-10T17:05:35.568Z,102612.67
2019-01-10T17:08:06.628Z,102614.25
2019-01-10T17:10:37.425Z,102617.64
2019-01-10T17:13:06.408Z,102622.41
2019-01-10T17:15:36.250Z,102622.72
2019-01-10T17:18:05.492Z,102616.20
2019-01-10T17:20:34.857Z,102619.02
2019-01-10T17:23:03.967Z,102620.74
2019-01-10T17:25:33.381Z,102620.52
2019-01-10T17:28:02.737Z,102620.48
2019-01-10T17:30:32.093Z,102623.51
2019-01-10T17:33:01.949Z,102623.42
2019-01-10T17:35:34.741Z,102622.34
2019-01-10T17:38:05.100Z,102620.42
2019-01-10T17:40:34.101Z,102621.34
2019-01-10T17:43:05.277Z,102624.72
2019-01-10T17:45:37.938Z,102625.97
2019-01-10T17:48:09.367Z,102627.70
2019-01-10T17:50:42.099Z,102628.75
2019-01-10T17:53:11.100Z,102633.09
2019-01-10T17:55:40.175Z,102627.85
2019-01-10T17:58:09.619Z,102634.89
2019-01-10T18:00:38.653Z,102639.27
2019-01-10T18:03:07.705Z,102634.72
2019-01-10T18:05:38.325Z,102633.45
2019-01-10T18:08:07.402Z,102637.73
2019-01-10T18:10:36.619Z,102639.06
2019-01-10T18:13:06.135Z,102643.87
2019-01-10T18:15:35.154Z,102646.91
2019-01-10T18:18:04.394Z,102648.80
2019-01-10T18:20:41.290Z,102646.18
2019-01-10T18:23:12.005Z,102649.36
2019-01-10T18:25:41.563Z,102652.56
2019-01-10T18:28:10.947Z,102649.45
2019-01-10T18:30:43.505Z,102651.90
2019-01-10T18:33:11.605Z,102650.21
2019-01-10T18:35:40.736Z,102647.11
2019-01-10T18:38:10.583Z,102647.56
2019-01-10T18:40:39.602Z,102646.48
2019-01-10T18:43:08.641Z,102650.44
2019-01-10T18:45:39.615Z,102651.38
2019-01-10T18:48:08.623Z,102643.41
2019-01-10T18:50:37.766Z,102651.27
2019-01-10T18:53:06.998Z,102651.60
2019-01-10T18:55:36.537Z,102651.60
2019-01-10T18:58:06.122Z,102647.23
2019-01-10T19:00:35.195Z,102641.66
2019-01-10T19:03:04.706Z,102649.38
2019-01-10T19:05:34.300Z,102649.53
2019-01-10T19:08:04.579Z,102645.99
2019-01-10T19:10:33.833Z,102638.89
2019-01-10T19:13:04.943Z,102635.91
2019-01-10T19:15:34.361Z,102642.73
2019-01-10T19:18:03.767Z,102638.23
2019-01-10T19:20:33.181Z,102638.27
2019-01-10T19:23:02.889Z,102639.00
2019-01-10T19:25:32.160Z,102640.73
2019-01-10T19:28:01.827Z,102640.81
2019-01-10T19:30:33.173Z,102643.91
2019-01-10T19:33:02.214Z,102645.91
2019-01-10T19:35:31.567Z,102649.45
2019-01-10T19:38:00.660Z,102647.16
2019-01-10T19:40:29.967Z,102649.05
2019-01-10T19:42:59.377Z,102650.41
2019-01-10T19:45:28.473Z,102648.84
2019-01-10T19:47:57.510Z,102651.50
2019-01-10T19:50:27.483Z,102647.48
2019-01-10T19:52:56.609Z,102645.38
2019-01-10T19:55:25.836Z,102646.28
2019-01-10T19:57:54.890Z,102639.24
2019-01-10T20:00:32.781Z,102646.88
2019-01-10T20:03:01.843Z,102647.64
2019-01-10T20:05:30.921Z,102655.52
2019-01-10T20:08:00.496Z,102652.38
2019-01-10T20:10:29.568Z,102650.22
2019-01-10T20:12:58.759Z,102650.02
2019-01-10T20:15:27.944Z,102652.17
2019-01-10T20:17:57.024Z,102651.67
2019-01-10T20:20:31.899Z,102656.50
2019-01-10T20:23:02.159Z,102659.28
2019-01-10T20:25:31.342Z,102656.21
2019-01-10T20:28:00.458Z,102653.81
2019-01-10T20:30:29.610Z,102651.15
2019-01-10T20:32:58.640Z,102651.67
2019-01-10T20:35:28.414Z,102650.69
2019-01-10T20:37:57.506Z,102647.94
2019-01-10T20:40:26.976Z,102652.63
2019-01-10T20:42:56.384Z,102649.05
2019-01-10T20:45:25.731Z,102648.28
2019-01-10T20:47:55.489Z,102649.42
2019-01-10T20:50:24.836Z,102645.61
2019-01-10T20:52:53.878Z,102647.33
2019-01-10T20:55:23.396Z,102636.67
2019-01-10T20:57:52.444Z,102647.37
2019-01-10T21:00:22.121Z,102648.34
2019-01-10T21:02:51.537Z,102642.16
2019-01-10T21:05:20.782Z,102638.71
2019-01-10T21:07:50.553Z,102639.31
2019-01-10T21:10:20.369Z,102640.77
2019-01-10T21:12:49.912Z,102636.27
2019-01-10T21:15:24.400Z,102635.69
2019-01-10T21:17:53.556Z,102633.97
2019-01-10T21:20:23.309Z,102633.97
2019-01-10T21:22:53.624Z,102630.20
2019-01-10T21:25:23.613Z,102635.69
2019-01-10T21:27:53.972Z,102629.41
2019-01-10T21:30:24.225Z,102623.13
2019-01-10T21:32:53.319Z,102626.02
2019-01-10T21:35:22.511Z,102626.83
2019-01-10T21:37:51.537Z,102620.28
2019-01-10T21:40:22.775Z,102622.12
2019-01-10T21:42:53.326Z,102619.39
2019-01-10T21:45:23.558Z,102624.14
2019-01-10T21:47:52.604Z,102620.16
2019-01-10T21:50:24.056Z,102621.65
2019-01-10T21:52:53.598Z,102617.71
2019-01-10T21:55:22.976Z,102616.70
2019-01-10T21:57:52.435Z,102614.98
2019-01-10T22:00:27.571Z,102619.23
2019-01-10T22:02:57.852Z,102610.27
2019-01-10T22:05:27.501Z,102614.70
2019-01-10T22:07:56.998Z,102611.40
2019-01-10T22:10:26.122Z,102622.01
2019-01-10T22:12:55.205Z,102620.97
2019-01-10T22:15:24.229Z,102612.13
2019-01-10T22:17:53.391Z,102614.56
2019-01-10T22:20:23.492Z,102611.96
2019-01-10T22:22:52.898Z,102613.36
2019-01-10T22:25:21.998Z,102613.29
2019-01-10T22:27:51.491Z,102605.13
2019-01-10T22:30:21.910Z,102603.97
2019-01-10T22:32:50.964Z,102604.00
2019-01-10T22:35:22.147Z,102602.77
2019-01-10T22:37:51.911Z,102599.43
2019-01-10T22:40:22.286Z,102600.19
2019-01-10T22:42:51.435Z,102595.85
2019-01-10T22:45:20.692Z,102590.52
2019-01-10T22:47:50.051Z,102596.33
2019-01-10T22:50:21.476Z,102599.30
2019-01-10T22:52:51.059Z,102593.27
2019-01-10T22:55:20.812Z,102591.78
2019-01-10T22:57:49.840Z,102580.87
2019-01-10T23:01:06.464Z,102584.81
2019-01-10T23:03:37.813Z,102581.95
2019-01-10T23:06:07.541Z,102583.44
2019-01-10T23:08:43.589Z,102583.64
2019-01-10T23:11:23.428Z,102586.17
2019-01-10T23:14:03.476Z,102589.55
2019-01-10T23:16:34.437Z,102581.75
2019-01-10T23:19:03.630Z,102584.20
2019-01-10T23:21:34.773Z,102587.54
2019-01-10T23:24:06.597Z,102586.45
2019-01-10T23:26:35.633Z,102581.88
2019-01-10T23:29:05.113Z,102584.37
2019-01-10T23:31:34.201Z,102579.19
2019-01-10T23:34:09.026Z,102584.37
2019-01-10T23:36:38.152Z,102584.28
2019-01-10T23:39:24.922Z,102584.00
2019-01-10T23:41:57.958Z,102585.86
2019-01-10T23:44:27.038Z,102586.17
2019-01-10T23:46:56.094Z,102587.70
2019-01-10T23:49:25.115Z,102587.09
2019-01-10T23:51:54.258Z,102582.40
2019-01-10T23:54:23.678Z,102589.67
2019-01-10T23:56:53.090Z,102585.86
2019-01-10T23:59:22.222Z,102582.44
